createdAt,value
2023-05-03T00:00:01.613Z,3.1
2023-05-03T00:01:01.171Z,3.2
2023-05-03T00:02:00.779Z,3.2
2023-05-03T00:03:01.380Z,3.2
2023-05-03T00:04:00.995Z,3.2
2023-05-03T00:05:01.597Z,3.2
2023-05-03T00:06:01.242Z,3.2
2023-05-03T00:07:00.786Z,3.2
2023-05-03T00:08:01.379Z,3.2
2023-05-03T00:09:00.987Z,3.2
2023-05-03T00:10:01.672Z,3.3
2023-05-03T00:11:01.236Z,3.3
2023-05-03T00:12:00.797Z,3.3
2023-05-03T00:13:01.379Z,3.2
2023-05-03T00:14:00.975Z,3.1
2023-05-03T00:15:01.559Z,3.1
2023-05-03T00:16:01.173Z,3.1
2023-05-03T00:17:01.783Z,3
2023-05-03T00:18:01.469Z,3
2023-05-03T00:19:00.975Z,3
2023-05-03T00:20:01.837Z,3
2023-05-03T00:21:01.757Z,3
2023-05-03T00:22:01.383Z,3
2023-05-03T00:23:00.980Z,2.9
2023-05-03T00:24:01.582Z,2.9
2023-05-03T00:25:01.175Z,2.9
2023-05-03T00:26:00.752Z,3
2023-05-03T00:27:01.351Z,2.9
2023-05-03T00:28:00.938Z,2.8
2023-05-03T00:29:01.518Z,2.9
2023-05-03T00:30:01.382Z,3
2023-05-03T00:31:01.266Z,3
2023-05-03T00:32:00.884Z,3
2023-05-03T00:33:01.495Z,3
2023-05-03T00:34:01.129Z,3
2023-05-03T00:35:01.745Z,2.9
2023-05-03T00:36:01.345Z,2.8
2023-05-03T00:37:00.952Z,2.8
2023-05-03T00:38:01.544Z,2.7
2023-05-03T00:39:01.145Z,2.7
2023-05-03T00:40:01.929Z,2.7
2023-05-03T00:41:01.736Z,2.7
2023-05-03T00:42:00.971Z,2.7
2023-05-03T00:43:01.649Z,2.7
2023-05-03T00:44:01.213Z,2.7
2023-05-03T00:45:00.817Z,2.8
2023-05-03T00:46:08.578Z,2.7
2023-05-03T00:47:00.981Z,2.7
2023-05-03T00:48:01.676Z,2.6
2023-05-03T00:49:01.274Z,2.6
2023-05-03T00:50:01.143Z,2.7
2023-05-03T00:51:01.075Z,2.7
2023-05-03T00:52:01.669Z,2.8
2023-05-03T00:53:01.266Z,2.8
2023-05-03T00:54:00.918Z,2.8
2023-05-03T00:55:01.517Z,2.7
2023-05-03T00:56:01.089Z,2.7
2023-05-03T00:57:01.667Z,2.6
2023-05-03T00:58:01.254Z,2.5
2023-05-03T00:59:00.876Z,2.5
2023-05-03T01:00:01.908Z,2.5
2023-05-03T01:01:01.694Z,2.4
2023-05-03T01:02:01.447Z,2.4
2023-05-03T01:03:01.215Z,2.4
2023-05-03T01:04:00.944Z,2.5
2023-05-03T01:05:01.472Z,2.5
2023-05-03T01:06:01.117Z,2.5
2023-05-03T01:07:01.652Z,2.5
2023-05-03T01:08:01.261Z,2.5
2023-05-03T01:09:00.830Z,2.5
2023-05-03T01:10:01.648Z,2.4
2023-05-03T01:11:01.077Z,2.4
2023-05-03T01:12:01.647Z,2.4
2023-05-03T01:13:01.265Z,2.4
2023-05-03T01:14:00.825Z,2.4
2023-05-03T01:15:01.406Z,2.3
2023-05-03T01:16:01.057Z,2.3
2023-05-03T01:17:01.604Z,2.3
2023-05-03T01:18:01.251Z,2.4
2023-05-03T01:19:00.779Z,2.4
2023-05-03T01:20:01.637Z,2.3
2023-05-03T01:21:01.011Z,2.3
2023-05-03T01:22:01.601Z,2.3
2023-05-03T01:23:01.212Z,2.3
2023-05-03T01:24:00.791Z,2.4
2023-05-03T01:25:01.356Z,2.4
2023-05-03T01:26:00.989Z,2.4
2023-05-03T01:27:01.533Z,2.4
2023-05-03T01:28:01.150Z,2.4
2023-05-03T01:29:01.724Z,2.4
2023-05-03T01:30:01.516Z,2.3
2023-05-03T01:31:00.938Z,2.3
2023-05-03T01:32:01.548Z,2.3
2023-05-03T01:33:01.245Z,2.3
2023-05-03T01:34:00.753Z,2.2
2023-05-03T01:35:01.326Z,2.3
2023-05-03T01:36:00.931Z,2.3
2023-05-03T01:37:01.489Z,2.3
2023-05-03T01:38:01.176Z,2.3
2023-05-03T01:39:01.720Z,2.2
2023-05-03T01:40:01.753Z,2.2
2023-05-03T01:41:01.470Z,2.1
2023-05-03T01:42:01.088Z,2
2023-05-03T01:43:00.808Z,2
2023-05-03T01:44:01.423Z,2.1
2023-05-03T01:45:01.017Z,2
2023-05-03T01:46:01.600Z,2
2023-05-03T01:47:01.201Z,2.1
2023-05-03T01:48:00.831Z,2.1
2023-05-03T01:49:01.384Z,2.2
2023-05-03T01:50:01.129Z,2.2
2023-05-03T01:51:01.561Z,2.2
2023-05-03T01:52:01.163Z,2.2
2023-05-03T01:53:00.778Z,2.2
2023-05-03T01:54:01.334Z,2.1
2023-05-03T01:55:00.919Z,2.2
2023-05-03T01:56:01.507Z,2.2
2023-05-03T01:57:01.101Z,2.1
2023-05-03T01:58:01.734Z,2.1
2023-05-03T01:59:01.341Z,2.1
2023-05-03T02:00:01.125Z,2.1
2023-05-03T02:01:01.569Z,2.1
2023-05-03T02:02:01.206Z,2.1
2023-05-03T02:03:00.792Z,2.1
2023-05-03T02:04:01.353Z,2.1
2023-05-03T02:05:01.004Z,2.1
2023-05-03T02:06:01.599Z,2.1
2023-05-03T02:07:01.239Z,2.2
2023-05-03T02:08:00.827Z,2.3
2023-05-03T02:09:01.387Z,2.2
2023-05-03T02:10:01.150Z,2.4
2023-05-03T02:11:01.562Z,2.3
2023-05-03T02:12:01.153Z,2.2
2023-05-03T02:13:01.756Z,2.4
2023-05-03T02:14:01.396Z,2.8
2023-05-03T02:15:00.988Z,2.9
2023-05-03T02:16:01.580Z,2.9
2023-05-03T02:17:01.279Z,2.9
2023-05-03T02:18:00.814Z,2.8
2023-05-03T02:19:01.374Z,2.8
2023-05-03T02:20:01.419Z,3
2023-05-03T02:21:01.275Z,3
2023-05-03T02:22:01.427Z,3.2
2023-05-03T02:23:01.169Z,3
2023-05-03T02:24:00.811Z,3.2
2023-05-03T02:25:01.429Z,3
2023-05-03T02:26:00.992Z,3
2023-05-03T02:27:01.577Z,3.1
2023-05-03T02:28:01.177Z,3
2023-05-03T02:29:00.782Z,2.9
2023-05-03T02:30:01.681Z,2.9
2023-05-03T02:31:01.076Z,2.9
2023-05-03T02:32:01.926Z,3
2023-05-03T02:33:01.295Z,3
2023-05-03T02:34:00.834Z,3.1
2023-05-03T02:35:01.415Z,3.1
2023-05-03T02:36:01.040Z,3.1
2023-05-03T02:37:01.573Z,3.1
2023-05-03T02:38:01.179Z,3.1
2023-05-03T02:39:00.757Z,3
2023-05-03T02:40:01.598Z,2.9
2023-05-03T02:41:01.022Z,2.8
2023-05-03T02:42:01.583Z,2.7
2023-05-03T02:43:01.181Z,2.7
2023-05-03T02:44:00.899Z,2.7
2023-05-03T02:45:01.368Z,2.7
2023-05-03T02:46:01.030Z,2.9
2023-05-03T02:47:01.561Z,3
2023-05-03T02:48:01.219Z,3.1
2023-05-03T02:49:01.765Z,3.1
2023-05-03T02:50:01.611Z,3.2
2023-05-03T02:51:00.984Z,3.3
2023-05-03T02:52:01.575Z,3.3
2023-05-03T02:53:01.173Z,3.3
2023-05-03T02:54:00.757Z,3.4
2023-05-03T02:55:01.358Z,3.3
2023-05-03T02:56:00.973Z,3.3
2023-05-03T02:57:01.534Z,3.3
2023-05-03T02:58:01.136Z,3.3
2023-05-03T02:59:01.712Z,3.3
2023-05-03T03:00:01.547Z,3.3
2023-05-03T03:01:00.964Z,3.3
2023-05-03T03:02:01.596Z,3.3
2023-05-03T03:03:01.236Z,3.2
2023-05-03T03:04:00.842Z,3.3
2023-05-03T03:05:01.354Z,3.3
2023-05-03T03:06:01.018Z,3.3
2023-05-03T03:07:01.532Z,3.3
2023-05-03T03:08:01.166Z,3.3
2023-05-03T03:09:00.782Z,3.3
2023-05-03T03:10:01.488Z,3.3
2023-05-03T03:11:00.987Z,3.3
2023-05-03T03:12:01.559Z,3.3
2023-05-03T03:13:01.162Z,3.3
2023-05-03T03:14:01.766Z,3.2
2023-05-03T03:15:01.373Z,3.2
2023-05-03T03:16:00.990Z,3
2023-05-03T03:17:01.550Z,3
2023-05-03T03:18:01.233Z,3
2023-05-03T03:19:01.765Z,3.1
2023-05-03T03:20:01.478Z,3.1
2023-05-03T03:21:00.975Z,3.2
2023-05-03T03:22:01.554Z,3.1
2023-05-03T03:23:01.145Z,3
2023-05-03T03:24:01.744Z,3
2023-05-03T03:25:01.336Z,2.9
2023-05-03T03:26:00.924Z,3
2023-05-03T03:27:01.511Z,3
2023-05-03T03:28:01.139Z,3
2023-05-03T03:29:01.685Z,3
2023-05-03T03:30:01.743Z,3.1
2023-05-03T03:31:01.526Z,3.1
2023-05-03T03:32:01.190Z,3.1
2023-05-03T03:33:00.935Z,3.1
2023-05-03T03:34:01.530Z,3
2023-05-03T03:35:01.173Z,3.1
2023-05-03T03:36:01.757Z,3.2
2023-05-03T03:37:01.360Z,3.2
2023-05-03T03:38:00.950Z,3.2
2023-05-03T03:39:01.543Z,3.1
2023-05-03T03:40:01.273Z,3
2023-05-03T03:41:01.841Z,2.8
2023-05-03T03:42:01.453Z,2.9
2023-05-03T03:43:00.981Z,2.8
2023-05-03T03:44:01.554Z,2.8
2023-05-03T03:45:01.192Z,2.9
2023-05-03T03:46:01.753Z,2.8
2023-05-03T03:47:01.408Z,2.8
2023-05-03T03:48:00.992Z,2.9
2023-05-03T03:49:01.561Z,3
2023-05-03T03:50:01.805Z,2.8
2023-05-03T03:51:01.648Z,2.8
2023-05-03T03:52:01.285Z,2.8
2023-05-03T03:53:00.882Z,2.9
2023-05-03T03:54:01.447Z,2.9
2023-05-03T03:55:01.056Z,2.9
2023-05-03T03:56:01.642Z,3
2023-05-03T03:57:01.259Z,3.1
2023-05-03T03:58:00.820Z,3.1
2023-05-03T03:59:01.430Z,3.1
2023-05-03T04:00:01.354Z,3.2
2023-05-03T04:01:01.137Z,3
2023-05-03T04:02:01.811Z,2.9
2023-05-03T04:03:01.566Z,2.9
2023-05-03T04:04:01.415Z,2.9
2023-05-03T04:05:01.080Z,3
2023-05-03T04:06:01.705Z,3.2
2023-05-03T04:07:01.317Z,3.1
2023-05-03T04:08:00.917Z,3.2
2023-05-03T04:09:01.529Z,3.2
2023-05-03T04:10:01.365Z,3.2
2023-05-03T04:11:01.728Z,3.2
2023-05-03T04:12:01.324Z,3.3
2023-05-03T04:13:00.933Z,3.3
2023-05-03T04:14:01.497Z,3.3
2023-05-03T04:15:01.085Z,3.4
2023-05-03T04:16:02.646Z,3.3
2023-05-03T04:17:00.957Z,3.4
2023-05-03T04:18:01.640Z,3.4
2023-05-03T04:19:01.251Z,3.5
2023-05-03T04:20:01.138Z,3.6
2023-05-03T04:21:00.941Z,3.6
2023-05-03T04:22:01.550Z,3.7
2023-05-03T04:23:01.690Z,3.7
2023-05-03T04:24:01.315Z,3.7
2023-05-03T04:25:00.908Z,3.8
2023-05-03T04:26:02.596Z,3.8
2023-05-03T04:27:00.896Z,3.9
2023-05-03T04:28:01.480Z,3.9
2023-05-03T04:29:01.097Z,3.9
2023-05-03T04:30:01.908Z,4
2023-05-03T04:31:01.350Z,3.9
2023-05-03T04:32:00.902Z,3.9
2023-05-03T04:33:01.511Z,3.9
2023-05-03T04:34:01.155Z,3.9
2023-05-03T04:35:01.715Z,3.9
2023-05-03T04:36:01.322Z,4
2023-05-03T04:37:00.935Z,4
2023-05-03T04:38:01.553Z,4.1
2023-05-03T04:39:01.196Z,4
2023-05-03T04:40:01.935Z,4.1
2023-05-03T04:41:01.691Z,4
2023-05-03T04:42:00.973Z,4
2023-05-03T04:43:01.561Z,4.1
2023-05-03T04:44:01.190Z,4.1
2023-05-03T04:45:00.790Z,4.1
2023-05-03T04:46:01.342Z,4.2
2023-05-03T04:47:00.975Z,4.1
2023-05-03T04:48:01.629Z,4.2
2023-05-03T04:49:01.248Z,4.2
2023-05-03T04:50:00.904Z,4.3
2023-05-03T04:51:01.375Z,4.3
2023-05-03T04:52:00.973Z,4.3
2023-05-03T04:53:01.568Z,4.4
2023-05-03T04:54:01.217Z,4.4
2023-05-03T04:55:00.754Z,4.3
2023-05-03T04:56:01.362Z,4.3
2023-05-03T04:57:00.967Z,4.5
2023-05-03T04:58:01.855Z,4.4
2023-05-03T04:59:01.196Z,4.4
2023-05-03T05:00:00.794Z,4.5
2023-05-03T05:01:01.382Z,4.5
2023-05-03T05:02:01.056Z,4.6
2023-05-03T05:03:01.665Z,4.6
2023-05-03T05:04:01.270Z,4.6
2023-05-03T05:05:00.801Z,4.6
2023-05-03T05:06:01.433Z,4.6
2023-05-03T05:07:01.044Z,4.6
2023-05-03T05:08:01.630Z,4.7
2023-05-03T05:09:01.265Z,4.7
2023-05-03T05:10:01.067Z,4.7
2023-05-03T05:11:01.449Z,4.8
2023-05-03T05:12:01.042Z,4.8
2023-05-03T05:13:01.627Z,4.7
2023-05-03T05:14:01.235Z,4.8
2023-05-03T05:15:00.792Z,4.8
2023-05-03T05:16:01.403Z,4.8
2023-05-03T05:17:00.993Z,4.9
2023-05-03T05:18:01.644Z,5
2023-05-03T05:19:01.245Z,5
2023-05-03T05:20:01.203Z,5
2023-05-03T05:21:01.012Z,5.1
2023-05-03T05:22:01.618Z,5.2
2023-05-03T05:23:01.240Z,5.1
2023-05-03T05:24:00.805Z,5.3
2023-05-03T05:25:01.386Z,5.3
2023-05-03T05:26:01.033Z,5.3
2023-05-03T05:27:01.564Z,5.3
2023-05-03T05:28:01.197Z,5.3
2023-05-03T05:29:01.743Z,5.4
2023-05-03T05:30:01.509Z,5.5
2023-05-03T05:31:00.980Z,5.5
2023-05-03T05:32:01.598Z,5.5
2023-05-03T05:33:01.293Z,5.5
2023-05-03T05:34:00.816Z,5.6
2023-05-03T05:35:01.377Z,5.6
2023-05-03T05:36:00.964Z,5.6
2023-05-03T05:37:01.552Z,5.6
2023-05-03T05:38:01.180Z,5.6
2023-05-03T05:39:00.789Z,5.6
2023-05-03T05:40:01.537Z,5.6
2023-05-03T05:41:01.028Z,5.6
2023-05-03T05:42:01.617Z,5.6
2023-05-03T05:43:01.239Z,5.8
2023-05-03T05:44:00.802Z,5.8
2023-05-03T05:45:01.392Z,5.9
2023-05-03T05:46:01.055Z,5.9
2023-05-03T05:47:01.589Z,5.9
2023-05-03T05:48:01.256Z,6
2023-05-03T05:49:00.809Z,6
2023-05-03T05:50:01.558Z,6
2023-05-03T05:51:01.058Z,6
2023-05-03T05:52:01.615Z,5.9
2023-05-03T05:53:01.228Z,6
2023-05-03T05:54:00.792Z,6
2023-05-03T05:55:01.369Z,6
2023-05-03T05:56:00.976Z,6
2023-05-03T05:57:01.555Z,6.1
2023-05-03T05:58:01.178Z,6.1
2023-05-03T05:59:01.751Z,6.2
2023-05-03T06:00:01.616Z,6.2
2023-05-03T06:01:01.017Z,6.3
2023-05-03T06:02:01.587Z,6.3
2023-05-03T06:03:01.216Z,6.3
2023-05-03T06:04:00.764Z,6.3
2023-05-03T06:05:01.365Z,6.2
2023-05-03T06:06:01.136Z,6.3
2023-05-03T06:07:01.540Z,6.3
2023-05-03T06:08:01.128Z,6.3
2023-05-03T06:09:06.999Z,6.3
2023-05-03T06:10:01.722Z,6.3
2023-05-03T06:11:01.562Z,6.2
2023-05-03T06:12:01.158Z,6.4
2023-05-03T06:13:00.821Z,6.4
2023-05-03T06:14:01.438Z,6.5
2023-05-03T06:15:02.604Z,6.6
2023-05-03T06:16:01.574Z,6.5
2023-05-03T06:17:01.204Z,6.5
2023-05-03T06:18:00.822Z,6.4
2023-05-03T06:19:01.348Z,6.4
2023-05-03T06:20:01.182Z,6.5
2023-05-03T06:21:01.035Z,6.7
2023-05-03T06:22:01.629Z,6.8
2023-05-03T06:23:00.794Z,6.8
2023-05-03T06:24:01.343Z,6.8
2023-05-03T06:25:00.936Z,6.8
2023-05-03T06:26:01.521Z,6.9
2023-05-03T06:27:01.118Z,6.9
2023-05-03T06:28:01.716Z,7
2023-05-03T06:29:01.304Z,7
2023-05-03T06:30:01.072Z,7
2023-05-03T06:31:01.550Z,7
2023-05-03T06:32:01.126Z,7.1
2023-05-03T06:33:01.770Z,7.2
2023-05-03T06:34:01.402Z,7.3
2023-05-03T06:35:00.952Z,7.2
2023-05-03T06:36:01.562Z,7.2
2023-05-03T06:37:01.153Z,7.2
2023-05-03T06:38:01.754Z,7.3
2023-05-03T06:39:01.371Z,7.3
2023-05-03T06:40:01.047Z,7.4
2023-05-03T06:41:01.573Z,7.4
2023-05-03T06:42:01.164Z,7.6
2023-05-03T06:43:01.749Z,7.7
2023-05-03T06:44:01.356Z,7.7
2023-05-03T06:45:00.970Z,7.7
2023-05-03T06:46:01.608Z,7.8
2023-05-03T06:47:01.354Z,7.7
2023-05-03T06:48:00.816Z,7.8
2023-05-03T06:49:01.406Z,7.7
2023-05-03T06:50:01.084Z,7.8
2023-05-03T06:51:01.595Z,7.8
2023-05-03T06:52:01.187Z,7.8
2023-05-03T06:53:00.773Z,8
2023-05-03T06:54:01.344Z,8
2023-05-03T06:55:00.943Z,7.9
2023-05-03T06:56:01.537Z,7.8
2023-05-03T06:57:01.141Z,7.8
2023-05-03T06:58:01.710Z,7.8
2023-05-03T06:59:01.301Z,7.8
2023-05-03T07:00:01.002Z,7.8
2023-05-03T07:01:01.465Z,7.8
2023-05-03T07:02:01.289Z,7.9
2023-05-03T07:03:01.734Z,7.9
2023-05-03T07:04:01.354Z,7.9
2023-05-03T07:05:00.884Z,8
2023-05-03T07:06:01.552Z,8.1
2023-05-03T07:07:01.141Z,8.1
2023-05-03T07:08:01.723Z,8.2
2023-05-03T07:09:01.314Z,8.3
2023-05-03T07:10:01.142Z,8.4
2023-05-03T07:11:01.030Z,8.4
2023-05-03T07:12:01.620Z,8.5
2023-05-03T07:13:01.768Z,8.5
2023-05-03T07:14:01.353Z,8.5
2023-05-03T07:15:00.959Z,8.6
2023-05-03T07:16:03.669Z,8.7
2023-05-03T07:17:01.071Z,8.6
2023-05-03T07:18:01.766Z,8.6
2023-05-03T07:19:01.307Z,8.6
2023-05-03T07:20:00.959Z,8.7
2023-05-03T07:21:01.485Z,8.7
2023-05-03T07:22:01.094Z,8.6
2023-05-03T07:23:01.738Z,8.6
2023-05-03T07:24:01.412Z,8.7
2023-05-03T07:25:00.963Z,8.9
2023-05-03T07:26:01.486Z,8.9
2023-05-03T07:27:01.080Z,8.9
2023-05-03T07:28:01.664Z,8.9
2023-05-03T07:29:01.258Z,8.9
2023-05-03T07:30:01.003Z,9
2023-05-03T07:31:01.420Z,8.9
2023-05-03T07:32:01.005Z,9
2023-05-03T07:33:01.650Z,9
2023-05-03T07:34:01.365Z,9
2023-05-03T07:35:00.846Z,9.1
2023-05-03T07:36:01.398Z,9.2
2023-05-03T07:37:00.997Z,9.2
2023-05-03T07:38:01.566Z,9.2
2023-05-03T07:39:01.156Z,9.2
2023-05-03T07:40:01.940Z,9.2
2023-05-03T07:41:01.688Z,9.1
2023-05-03T07:42:00.979Z,9.2
2023-05-03T07:43:01.562Z,9.2
2023-05-03T07:44:01.167Z,9.2
2023-05-03T07:45:01.762Z,9.3
2023-05-03T07:46:01.365Z,9.4
2023-05-03T07:47:01.067Z,9.4
2023-05-03T07:48:01.580Z,9.5
2023-05-03T07:49:01.207Z,9.5
2023-05-03T07:50:01.033Z,9.5
2023-05-03T07:51:01.383Z,9.3
2023-05-03T07:52:00.985Z,9.5
2023-05-03T07:53:01.573Z,9.4
2023-05-03T07:54:01.167Z,9.3
2023-05-03T07:55:01.765Z,9.3
2023-05-03T07:56:01.376Z,9.4
2023-05-03T07:57:00.993Z,9.4
2023-05-03T07:58:01.581Z,9.4
2023-05-03T07:59:08.930Z,9.4
2023-05-03T08:00:01.895Z,9.4
2023-05-03T08:01:01.631Z,9.6
2023-05-03T08:02:01.816Z,9.6
2023-05-03T08:03:01.715Z,9.7
2023-05-03T08:04:01.407Z,9.6
2023-05-03T08:05:00.909Z,9.6
2023-05-03T08:06:01.528Z,9.8
2023-05-03T08:07:01.055Z,9.8
2023-05-03T08:08:01.667Z,9.8
2023-05-03T08:09:01.258Z,9.7
2023-05-03T08:10:00.869Z,9.8
2023-05-03T08:11:01.427Z,9.8
2023-05-03T08:12:01.058Z,9.6
2023-05-03T08:13:01.667Z,9.5
2023-05-03T08:14:01.298Z,9.7
2023-05-03T08:15:00.887Z,9.6
2023-05-03T08:16:01.468Z,9.6
2023-05-03T08:17:01.108Z,9.8
2023-05-03T08:18:01.741Z,9.8
2023-05-03T08:19:01.323Z,9.9
2023-05-03T08:20:00.981Z,9.8
2023-05-03T08:21:01.512Z,9.7
2023-05-03T08:22:01.164Z,9.7
2023-05-03T08:23:01.691Z,9.8
2023-05-03T08:24:01.299Z,9.8
2023-05-03T08:25:00.891Z,9.9
2023-05-03T08:26:01.476Z,10
2023-05-03T08:27:01.081Z,10.1
2023-05-03T08:28:01.670Z,10.2
2023-05-03T08:29:01.281Z,10.2
2023-05-03T08:30:00.906Z,10
2023-05-03T08:31:01.500Z,10
2023-05-03T08:32:01.103Z,10.1
2023-05-03T08:33:01.697Z,10
2023-05-03T08:34:01.308Z,10
2023-05-03T08:35:00.931Z,9.9
2023-05-03T08:36:01.549Z,9.9
2023-05-03T08:37:01.152Z,10
2023-05-03T08:38:01.858Z,9.9
2023-05-03T08:39:01.459Z,9.9
2023-05-03T08:40:01.038Z,9.8
2023-05-03T08:41:01.573Z,10
2023-05-03T08:42:01.184Z,10.2
2023-05-03T08:43:01.755Z,10.3
2023-05-03T08:44:01.351Z,10.7
2023-05-03T08:45:00.942Z,10.7
2023-05-03T08:46:01.548Z,10.7
2023-05-03T08:47:01.160Z,10.8
2023-05-03T08:48:00.798Z,10.7
2023-05-03T08:49:01.315Z,10.5
2023-05-03T08:50:01.247Z,10.4
2023-05-03T08:51:01.075Z,10.5
2023-05-03T08:52:01.666Z,10.5
2023-05-03T08:53:01.279Z,10.6
2023-05-03T08:54:00.916Z,10.5
2023-05-03T08:55:01.420Z,10.5
2023-05-03T08:56:01.011Z,10.4
2023-05-03T08:57:01.796Z,10.6
2023-05-03T08:58:01.276Z,10.8
2023-05-03T08:59:00.827Z,11
2023-05-03T09:00:01.558Z,11
2023-05-03T09:01:01.070Z,10.8
2023-05-03T09:02:01.679Z,10.6
2023-05-03T09:03:01.431Z,10.5
2023-05-03T09:04:00.929Z,10.4
2023-05-03T09:05:01.679Z,10.3
2023-05-03T09:06:01.156Z,10.3
2023-05-03T09:07:01.703Z,10.4
2023-05-03T09:08:01.305Z,10.6
2023-05-03T09:09:00.949Z,10.7
2023-05-03T09:10:01.589Z,10.6
2023-05-03T09:11:01.183Z,10.6
2023-05-03T09:12:01.760Z,10.8
2023-05-03T09:13:01.358Z,10.8
2023-05-03T09:14:00.961Z,10.9
2023-05-03T09:15:01.566Z,10.6
2023-05-03T09:16:01.174Z,10.6
2023-05-03T09:17:01.783Z,10.8
2023-05-03T09:18:01.451Z,10.8
2023-05-03T09:19:01.003Z,11
2023-05-03T09:20:01.750Z,10.9
2023-05-03T09:21:01.243Z,10.8
2023-05-03T09:22:00.813Z,10.7
2023-05-03T09:23:01.404Z,10.8
2023-05-03T09:24:01.022Z,10.8
2023-05-03T09:25:01.588Z,10.9
2023-05-03T09:26:01.227Z,10.9
2023-05-03T09:27:01.786Z,11
2023-05-03T09:28:01.397Z,10.8
2023-05-03T09:29:01.022Z,10.8
2023-05-03T09:30:01.906Z,10.9
2023-05-03T09:31:01.245Z,10.8
2023-05-03T09:32:00.906Z,10.9
2023-05-03T09:33:01.411Z,11
2023-05-03T09:34:01.062Z,10.9
2023-05-03T09:35:01.803Z,11
2023-05-03T09:36:01.301Z,11.2
2023-05-03T09:37:00.860Z,11.2
2023-05-03T09:38:01.459Z,11
2023-05-03T09:39:01.080Z,10.9
2023-05-03T09:40:01.868Z,11.1
2023-05-03T09:41:01.302Z,11
2023-05-03T09:42:00.917Z,11
2023-05-03T09:43:02.645Z,11.1
2023-05-03T09:44:01.015Z,11.2
2023-05-03T09:45:01.928Z,11.1
2023-05-03T09:46:01.282Z,10.9
2023-05-03T09:47:00.852Z,10.9
2023-05-03T09:48:01.485Z,11.1
2023-05-03T09:49:01.169Z,11.2
2023-05-03T09:50:01.714Z,11.2
2023-05-03T09:51:01.331Z,11.2
2023-05-03T09:52:00.914Z,11.1
2023-05-03T09:53:01.485Z,11.1
2023-05-03T09:54:01.093Z,11.2
2023-05-03T09:55:01.898Z,11.3
2023-05-03T09:56:01.311Z,11.4
2023-05-03T09:57:00.896Z,11.5
2023-05-03T09:58:01.514Z,11.3
2023-05-03T09:59:01.137Z,11.3
2023-05-03T10:00:01.722Z,11.3
2023-05-03T10:01:01.332Z,11.5
2023-05-03T10:02:00.944Z,11.3
2023-05-03T10:03:01.542Z,11.1
2023-05-03T10:04:01.238Z,11.2
2023-05-03T10:05:01.946Z,11.3
2023-05-03T10:06:01.658Z,11.3
2023-05-03T10:07:01.008Z,11.4
2023-05-03T10:08:01.587Z,11.5
2023-05-03T10:09:01.181Z,11.5
2023-05-03T10:10:01.788Z,11.4
2023-05-03T10:11:01.390Z,11.2
2023-05-03T10:12:00.982Z,11.2
2023-05-03T10:13:01.569Z,11.2
2023-05-03T10:14:01.208Z,11.4
2023-05-03T10:15:01.839Z,11.4
2023-05-03T10:16:01.589Z,11.5
2023-05-03T10:17:01.063Z,11.5
2023-05-03T10:18:01.571Z,11.4
2023-05-03T10:19:01.194Z,11.5
2023-05-03T10:20:00.800Z,11.5
2023-05-03T10:21:01.385Z,11.6
2023-05-03T10:22:00.970Z,11.5
2023-05-03T10:23:01.559Z,11.5
2023-05-03T10:24:01.159Z,11.8
2023-05-03T10:25:02.058Z,11.9
2023-05-03T10:26:00.834Z,11.9
2023-05-03T10:27:01.494Z,11.9
2023-05-03T10:28:01.095Z,11.8
2023-05-03T10:29:01.680Z,11.9
2023-05-03T10:30:01.577Z,11.9
2023-05-03T10:31:00.935Z,12
2023-05-03T10:32:01.474Z,11.9
2023-05-03T10:33:01.121Z,12.1
2023-05-03T10:34:01.659Z,12.1
2023-05-03T10:35:01.365Z,12
2023-05-03T10:36:00.801Z,11.9
2023-05-03T10:37:01.471Z,12
2023-05-03T10:38:01.067Z,12.1
2023-05-03T10:39:01.645Z,12
2023-05-03T10:40:01.237Z,11.9
2023-05-03T10:41:00.842Z,12
2023-05-03T10:42:01.479Z,12.2
2023-05-03T10:43:01.080Z,12.1
2023-05-03T10:44:01.642Z,12.1
2023-05-03T10:45:01.523Z,12.1
2023-05-03T10:46:01.540Z,11.9
2023-05-03T10:47:01.168Z,11.9
2023-05-03T10:48:01.816Z,11.9
2023-05-03T10:49:01.483Z,11.8
2023-05-03T10:50:01.003Z,11.8
2023-05-03T10:51:01.588Z,11.8
2023-05-03T10:52:01.191Z,11.8
2023-05-03T10:53:01.776Z,11.8
2023-05-03T10:54:01.370Z,11.9
2023-05-03T10:55:01.070Z,12.3
2023-05-03T10:56:01.530Z,12.2
2023-05-03T10:57:01.137Z,12.1
2023-05-03T10:58:01.717Z,12.1
2023-05-03T10:59:01.324Z,12.1
2023-05-03T11:00:00.930Z,12.2
2023-05-03T11:01:01.497Z,12.3
2023-05-03T11:02:01.213Z,12.2
2023-05-03T11:03:01.705Z,12.2
2023-05-03T11:04:01.344Z,12.2
2023-05-03T11:05:01.038Z,12.3
2023-05-03T11:06:01.523Z,12.6
2023-05-03T11:07:01.176Z,12.6
2023-05-03T11:08:01.729Z,12.6
2023-05-03T11:09:01.337Z,12.5
2023-05-03T11:10:00.923Z,12.5
2023-05-03T11:11:01.510Z,12.6
2023-05-03T11:12:01.118Z,12.6
2023-05-03T11:13:01.711Z,12.6
2023-05-03T11:14:01.388Z,12.5
2023-05-03T11:15:01.018Z,12.5
2023-05-03T11:16:01.535Z,12.5
2023-05-03T11:17:01.323Z,12.8
2023-05-03T11:18:01.795Z,12.8
2023-05-03T11:19:01.414Z,12.8
2023-05-03T11:20:00.982Z,12.7
2023-05-03T11:21:01.563Z,12.7
2023-05-03T11:22:01.150Z,12.6
2023-05-03T11:23:01.737Z,12.4
2023-05-03T11:24:01.330Z,12.7
2023-05-03T11:25:01.125Z,12.9
2023-05-03T11:26:01.502Z,13.1
2023-05-03T11:27:01.100Z,13.1
2023-05-03T11:28:01.645Z,13.2
2023-05-03T11:29:01.241Z,13.2
2023-05-03T11:30:00.842Z,13
2023-05-03T11:31:01.406Z,12.8
2023-05-03T11:32:01.003Z,12.7
2023-05-03T11:33:01.605Z,12.6
2023-05-03T11:34:01.411Z,12.7
2023-05-03T11:35:00.926Z,12.7
2023-05-03T11:36:01.418Z,12.7
2023-05-03T11:37:01.072Z,12.7
2023-05-03T11:38:01.593Z,12.7
2023-05-03T11:39:01.199Z,13
2023-05-03T11:40:01.772Z,13.3
2023-05-03T11:41:01.365Z,13.2
2023-05-03T11:42:00.978Z,13.1
2023-05-03T11:43:01.540Z,12.9
2023-05-03T11:44:14.838Z,12.9
2023-05-03T11:45:01.781Z,13.1
2023-05-03T11:46:01.550Z,13.1
2023-05-03T11:47:01.079Z,13.2
2023-05-03T11:48:01.648Z,13.5
2023-05-03T11:49:01.242Z,13.8
2023-05-03T11:50:00.911Z,13.8
2023-05-03T11:51:01.384Z,13.7
2023-05-03T11:52:01.030Z,13.6
2023-05-03T11:53:01.564Z,13.5
2023-05-03T11:54:04.799Z,13.4
2023-05-03T11:55:01.812Z,13.4
2023-05-03T11:56:01.514Z,13.4
2023-05-03T11:57:01.110Z,13.3
2023-05-03T11:58:01.587Z,13.1
2023-05-03T11:59:01.187Z,13.1
2023-05-03T12:00:01.773Z,13.5
2023-05-03T12:01:01.367Z,13.8
2023-05-03T12:02:01.065Z,13.7
2023-05-03T12:03:01.788Z,13.8
2023-05-03T12:04:01.476Z,13.9
2023-05-03T12:05:01.888Z,13.9
2023-05-03T12:06:02.945Z,14
2023-05-03T12:07:02.240Z,13.9
2023-05-03T12:08:02.002Z,13.8
2023-05-03T12:09:01.459Z,14
2023-05-03T12:11:02.989Z,14.5
2023-05-03T12:13:02.109Z,14.6
2023-05-03T12:14:01.107Z,14.1
2023-05-03T12:15:03.446Z,13.8
2023-05-03T12:16:11.443Z,13.7
2023-05-03T12:17:00.928Z,13.7
2023-05-03T12:18:04.045Z,13.7
2023-05-03T12:19:02.036Z,13.6
2023-05-03T12:20:19.298Z,13.6
2023-05-03T12:23:03.733Z,14.1
2023-05-03T12:24:01.560Z,14.3
2023-05-03T12:25:03.769Z,14.2
2023-05-03T12:26:01.553Z,14.3
2023-05-03T12:27:02.543Z,14.4
2023-05-03T12:28:18.400Z,14.5
2023-05-03T12:29:02.146Z,14.3
2023-05-03T12:30:01.872Z,14.1
2023-05-03T12:31:03.780Z,14.2
2023-05-03T12:32:01.173Z,14.3
2023-05-03T12:33:04.203Z,14.4
2023-05-03T12:34:25.188Z,14.5
2023-05-03T12:35:02.488Z,14.7
2023-05-03T12:36:04.094Z,14.8
2023-05-03T12:37:03.945Z,14.7
2023-05-03T12:38:02.912Z,14.5
2023-05-03T12:39:02.181Z,14.5
2023-05-03T12:40:24.699Z,14.4
2023-05-03T12:41:01.484Z,14.2
2023-05-03T12:43:01.638Z,14.5
2023-05-03T12:44:01.307Z,14.3
2023-05-03T12:45:04.023Z,14.4
2023-05-03T12:46:25.572Z,14.6
2023-05-03T12:47:01.359Z,14.7
2023-05-03T12:48:01.868Z,14.7
2023-05-03T12:49:01.425Z,14.6
2023-05-03T12:50:04.865Z,14.7
2023-05-03T12:51:18.251Z,14.7
2023-05-03T12:52:17.716Z,14.8
2023-05-03T12:53:02.489Z,14.6
2023-05-03T12:54:02.253Z,14.5
2023-05-03T12:55:03.612Z,14.4
2023-05-03T12:56:03.264Z,14.4
2023-05-03T12:57:01.501Z,14.5
2023-05-03T12:58:26.586Z,14.6
2023-05-03T12:59:30.830Z,14.8
2023-05-03T13:00:02.962Z,14.8
2023-05-03T13:05:02.050Z,14.4
2023-05-03T13:06:09.854Z,14.4
2023-05-03T13:07:01.754Z,14.5
2023-05-03T13:09:03.101Z,14.6
2023-05-03T13:11:01.600Z,14.8
2023-05-03T13:12:01.452Z,14.8
2023-05-03T13:13:01.022Z,14.6
2023-05-03T13:14:01.599Z,14.6
2023-05-03T13:15:01.477Z,14.8
2023-05-03T13:16:01.800Z,14.7
2023-05-03T13:17:01.500Z,14.7
2023-05-03T13:18:01.039Z,14.7
2023-05-03T13:19:01.601Z,14.7
2023-05-03T13:20:01.203Z,14.6
2023-05-03T13:21:01.765Z,14.7
2023-05-03T13:22:01.419Z,14.9
2023-05-03T13:23:01.028Z,15.1
2023-05-03T13:24:01.600Z,15
2023-05-03T13:25:01.253Z,15.1
2023-05-03T13:26:01.800Z,15.1
2023-05-03T13:27:01.416Z,15
2023-05-03T13:28:01.028Z,15.1
2023-05-03T13:29:01.615Z,15
2023-05-03T13:30:01.211Z,15
2023-05-03T13:31:01.812Z,15
2023-05-03T13:32:01.541Z,15.1
2023-05-03T13:33:01.064Z,15.1
2023-05-03T13:34:01.618Z,15.3
2023-05-03T13:35:01.235Z,15.3
2023-05-03T13:36:01.788Z,15.4
2023-05-03T13:37:01.382Z,15.5
2023-05-03T13:38:00.993Z,15.4
2023-05-03T13:39:01.556Z,15.3
2023-05-03T13:40:01.282Z,15.4
2023-05-03T13:41:01.738Z,15.5
2023-05-03T13:42:01.354Z,15.4
2023-05-03T13:43:00.961Z,15.6
2023-05-03T13:44:01.560Z,15.4
2023-05-03T13:45:01.165Z,15.7
2023-05-03T13:46:01.753Z,15.7
2023-05-03T13:47:01.355Z,16
2023-05-03T13:48:09.066Z,16
2023-05-03T13:49:01.550Z,16
2023-05-03T13:50:01.261Z,15.6
2023-05-03T13:51:01.779Z,15.2
2023-05-03T13:52:01.461Z,15.2
2023-05-03T13:53:01.063Z,15.4